Clinton, OK

7:39 AM CDT on September 21, 2014 (GMT -0500)
Clinton Municipal | Change Station
CLOSE
Current Station
Airport
Location: Clinton,
Elevation: 1614 ft
Nearby Weather Stations

Elev 1614 ft 35.54 °N, 98.93 °W | Updated 24 minutes ago

Clear
Clear
64 °F
Feels Like 64 °F
N
6
Wind Variable Wind from North

Today
High -- | Low -- °F
--% Chance of Precip.
Yesterday
High -- | Low -- °F
Precip. -- in
7:23 AM 7:34 PM
Waning Crescent, 7% visible
Pressure 30.13 in
Visibility 10.0 miles
Clouds Clear
Dew Point 61 °F
Humidity 88%
Rainfall 0.00 in
Snow Depth Not available.
UV 0 out of 12
Pollen 10.00 out of 12
Air Quality Not available.
Flu Activity Not available.
METAR KCLK 211215Z AUTO 35005KT 10SM CLR 18/16 A3013 RMK AO2

More Conditions Fewer Conditions

Pressure 30.13 in
Visibility 10.0 miles
Clouds Clear
Dew Point 61 °F
Humidity 88%
Rainfall 0.00 in
Snow Depth Not available.
UV 0 out of 12
Pollen 10.00 out of 12
Air Quality Not available.
Flu Activity Not available.
METAR KCLK 211215Z AUTO 35005KT 10SM CLR 18/16 A3013 RMK AO2

More Conditions Fewer Conditions

10-Day Weather Forecast

Almanac

Astronomy

Sep. 21, 2014 Rise Set
Actual Time 7:23 AM CDT 7:34 PM CDT
Civil Twilight 6:57 AM CDT 7:59 PM CDT
Nautical Twilight 6:27 AM CDT 8:29 PM CDT
Astronomical Twilight 5:57 AM CDT 8:59 PM CDT
Moon 5:02 AM CDT 6:08 PM CDT
Length of Visible Light 13h 01m
Length of Day
12h 10m
Tomorrow will be 2m 13s shorter.
Waning Crescent, 7% of the Moon is Illuminated
Today
Waning Crescent
Sep 24
New
Oct 1
First Quarter
Oct 8
Full
Oct 15
Last Quarter

Today's Extremes

State Highs State Lows

Community

WunderPhotos

Upload Photos

1,755,127 photos uploaded!

Nearby

Snow Depth

Station Depth Elevation
No new snow has been reported.

Earthquake Activity

City Distance Mag. Time & Date
Medford, Oklahoma 113 miles 3.2 2:10 AM CDT
2014-09-20
Luther, Oklahoma 105 miles 2.7 4:47 PM CDT
2014-09-19
Guthrie, Oklahoma 89 miles 3.6 12:23 PM CDT
2014-09-19
Jones, Oklahoma 95 miles 2.8 1:13 AM CDT
2014-09-19
Minimum magnitude displayed is 2.5.

Coastal Water Temperatures

Place Temperature
No Stations Reporting

Nearby Weather Stations